Time,TemperatureF,DewpointF,PressureIn,WindDirection,WindDirectionDegrees,WindSpeedMPH,WindSpeedGustMPH,Humidity,HourlyPrecipIn,Conditions,Clouds,dailyrainin,SolarRadiationWatts/m^2,SoftwareType,DateUTC
2013-09-29 00:01:00,74.9,71.1,29.91,East,99,3.0,4.0,88,0.00,,BKN060,0.01,0.00,VWS V14.00,2013-09-29 04:01:00,
2013-09-29 00:06:00,74.8,71.0,29.91,East,98,0.0,0.0,88,0.00,,BKN060,0.00,0.00,VWS V14.00,2013-09-29 04:06:00,
2013-09-29 00:11:00,74.7,70.9,29.91,East,98,0.0,2.0,88,0.00,,BKN060,0.00,0.00,VWS V14.00,2013-09-29 04:11:00,
2013-09-29 00:16:00,74.6,70.8,29.91,East,98,4.0,4.0,88,0.00,,BKN060,0.00,0.00,VWS V14.00,2013-09-29 04:16:00,
2013-09-29 00:21:00,74.6,70.8,29.91,East,98,4.0,4.0,88,0.00,,BKN060,0.00,0.00,VWS V14.00,2013-09-29 04:21:00,
2013-09-29 00:26:00,74.5,70.7,29.91,East,98,0.0,0.0,88,0.00,,BKN060,0.00,0.00,VWS V14.00,2013-09-29 04:26:00,
2013-09-29 00:31:00,74.6,71.2,29.91,East,98,0.0,0.0,89,0.00,,BKN060,0.00,0.00,VWS V14.00,2013-09-29 04:31:00,
2013-09-29 00:36:00,74.6,71.2,29.90,East,98,0.0,0.0,89,0.00,,BKN060,0.00,0.00,VWS V14.00,2013-09-29 04:36:00,
2013-09-29 00:41:00,74.5,71.1,29.91,East,98,0.0,0.0,89,0.00,,BKN060,0.00,0.00,VWS V14.00,2013-09-29 04:41:00,
2013-09-29 00:46:00,74.5,71.1,29.90,East,98,0.0,0.0,89,0.00,,BKN060,0.00,0.00,VWS V14.00,2013-09-29 04:46:00,
2013-09-29 00:51:00,74.6,71.2,29.90,East,98,0.0,0.0,89,0.00,,BKN060,0.00,0.00,VWS V14.00,2013-09-29 04:51:00,
2013-09-29 00:56:00,74.6,71.2,29.90,East,98,0.0,0.0,89,0.00,,BKN060,0.00,0.00,VWS V14.00,2013-09-29 04:56:00,
2013-09-29 01:01:00,74.6,71.2,29.90,East,98,0.0,0.0,89,0.00,,BKN060,0.00,0.00,VWS V14.00,2013-09-29 05:01:00,
2013-09-29 01:06:00,74.6,71.2,29.89,East,98,0.0,0.0,89,0.00,,BKN060,0.00,0.00,VWS V14.00,2013-09-29 05:06:00,
2013-09-29 01:11:00,74.6,71.2,29.89,East,98,0.0,0.0,89,0.00,,BKN060,0.00,0.00,VWS V14.00,2013-09-29 05:11:00,
2013-09-29 01:16:00,74.6,71.2,29.89,East,98,0.0,0.0,89,0.00,,BKN060,0.00,0.00,VWS V14.00,2013-09-29 05:16:00,
2013-09-29 01:21:00,74.5,71.1,29.89,East,98,0.0,0.0,89,0.00,,BKN060,0.00,0.00,VWS V14.00,2013-09-29 05:21:00,
2013-09-29 01:26:00,74.6,71.2,29.88,East,98,0.0,0.0,89,0.00,,BKN060,0.00,0.00,VWS V14.00,2013-09-29 05:26:00,
2013-09-29 01:31:00,74.6,71.2,29.88,East,98,0.0,0.0,89,0.00,,BKN060,0.00,0.00,VWS V14.00,2013-09-29 05:31:00,
2013-09-29 01:36:00,74.6,71.2,29.88,East,98,0.0,1.0,89,0.00,,BKN060,0.00,0.00,VWS V14.00,2013-09-29 05:36:00,
2013-09-29 01:41:00,74.6,71.2,29.88,East,98,0.0,0.0,89,0.00,,BKN060,0.00,0.00,VWS V14.00,2013-09-29 05:41:00,
2013-09-29 01:46:00,74.6,71.2,29.88,East,98,0.0,0.0,89,0.00,,BKN060,0.00,0.00,VWS V14.00,2013-09-29 05:46:00,
2013-09-29 01:51:00,74.5,71.1,29.88,East,98,0.0,0.0,89,0.00,,BKN060,0.00,0.00,VWS V14.00,2013-09-29 05:51:00,
2013-09-29 01:56:00,74.5,71.1,29.88,East,98,0.0,0.0,89,0.00,,BKN060,0.00,0.00,VWS V14.00,2013-09-29 05:56:00,
2013-09-29 02:01:00,74.3,70.8,29.89,East,98,0.0,0.0,89,0.00,,BKN060,0.00,0.00,VWS V14.00,2013-09-29 06:01:00,
2013-09-29 02:06:00,74.2,70.8,29.88,East,98,0.0,0.0,89,0.00,,BKN060,0.00,0.00,VWS V14.00,2013-09-29 06:06:00,
2013-09-29 02:11:00,74.0,70.6,29.88,East,98,0.0,0.0,89,0.00,,BKN060,0.00,0.00,VWS V14.00,2013-09-29 06:11:00,
2013-09-29 02:16:00,73.9,70.5,29.88,East,98,0.0,0.0,89,0.00,,BKN060,0.00,0.00,VWS V14.00,2013-09-29 06:16:00,
2013-09-29 02:21:00,73.8,70.4,29.88,East,98,0.0,0.0,89,0.00,,BKN060,0.00,0.00,VWS V14.00,2013-09-29 06:21:00,
2013-09-29 02:26:00,73.8,70.4,29.88,East,98,0.0,0.0,89,0.00,,BKN060,0.00,0.00,VWS V14.00,2013-09-29 06:26:00,
2013-09-29 02:31:00,73.8,70.4,29.88,East,98,0.0,0.0,89,0.00,,BKN060,0.00,0.00,VWS V14.00,2013-09-29 06:31:00,
2013-09-29 02:36:00,73.8,70.4,29.87,East,98,0.0,0.0,89,0.00,,BKN060,0.00,0.00,VWS V14.00,2013-09-29 06:36:00,
2013-09-29 02:41:00,73.9,70.5,29.87,East,98,0.0,0.0,89,0.00,,BKN060,0.00,0.00,VWS V14.00,2013-09-29 06:41:00,
2013-09-29 02:46:00,74.2,71.1,29.86,East,98,0.0,0.0,90,0.00,,BKN060,0.00,0.00,VWS V14.00,2013-09-29 06:46:00,
2013-09-29 02:51:00,74.3,71.2,29.86,East,98,0.0,0.0,90,0.00,,BKN060,0.00,0.00,VWS V14.00,2013-09-29 06:51:00,
2013-09-29 02:57:00,74.3,71.2,29.86,East,98,0.0,0.0,90,0.00,,BKN060,0.00,0.00,VWS V14.00,2013-09-29 06:57:00,
2013-09-29 03:02:00,74.2,71.1,29.86,East,98,0.0,0.0,90,0.00,,BKN060,0.00,0.00,VWS V14.00,2013-09-29 07:02:00,
2013-09-29 03:07:00,74.2,71.1,29.86,East,98,0.0,0.0,90,0.00,,BKN060,0.00,0.00,VWS V14.00,2013-09-29 07:07:00,
2013-09-29 03:12:00,74.1,71.0,29.86,East,98,0.0,1.0,90,0.00,,BKN060,0.00,0.00,VWS V14.00,2013-09-29 07:12:00,
2013-09-29 03:17:00,74.0,70.9,29.86,East,98,0.0,0.0,90,0.00,,BKN060,0.00,0.00,VWS V14.00,2013-09-29 07:17:00,
2013-09-29 03:22:00,74.0,70.6,29.86,East,98,0.0,1.0,89,0.00,,BKN060,0.00,0.00,VWS V14.00,2013-09-29 07:22:00,
2013-09-29 03:27:00,74.0,70.6,29.86,East,98,0.0,1.0,89,0.00,,BKN060,0.00,0.00,VWS V14.00,2013-09-29 07:27:00,
2013-09-29 03:32:00,74.0,70.9,29.86,East,98,0.0,0.0,90,0.00,,BKN060,0.00,0.00,VWS V14.00,2013-09-29 07:32:00,
2013-09-29 03:37:00,74.1,71.0,29.86,East,98,0.0,2.0,90,0.00,,BKN060,0.00,0.00,VWS V14.00,2013-09-29 07:37:00,
2013-09-29 03:42:00,74.1,71.0,29.86,East,98,0.0,0.0,90,0.00,,BKN060,0.00,0.00,VWS V14.00,2013-09-29 07:42:00,
2013-09-29 03:47:00,74.0,70.9,29.86,East,98,0.0,0.0,90,0.00,,BKN060,0.00,0.00,VWS V14.00,2013-09-29 07:47:00,
2013-09-29 03:52:00,74.0,70.9,29.86,East,98,0.0,0.0,90,0.00,,BKN060,0.00,0.00,VWS V14.00,2013-09-29 07:52:00,
2013-09-29 03:57:00,74.0,70.9,29.86,East,98,0.0,0.0,90,0.00,,BKN060,0.00,0.00,VWS V14.00,2013-09-29 07:57:00,
2013-09-29 04:02:00,74.1,71.0,29.86,East,98,0.0,0.0,90,0.00,,BKN060,0.00,0.00,VWS V14.00,2013-09-29 08:02:00,
2013-09-29 04:07:00,74.1,71.0,29.86,East,98,0.0,0.0,90,0.00,,BKN060,0.00,0.00,VWS V14.00,2013-09-29 08:07:00,
2013-09-29 04:12:00,74.0,70.9,29.86,East,98,0.0,0.0,90,0.00,,BKN060,0.00,0.00,VWS V14.00,2013-09-29 08:12:00,
2013-09-29 04:17:00,74.0,70.9,29.86,East,98,0.0,0.0,90,0.00,,BKN060,0.00,0.00,VWS V14.00,2013-09-29 08:17:00,
2013-09-29 04:22:00,74.0,70.9,29.86,East,98,0.0,0.0,90,0.00,,BKN060,0.00,0.00,VWS V14.00,2013-09-29 08:22:00,
2013-09-29 04:27:00,73.9,70.8,29.86,East,98,0.0,0.0,90,0.00,,BKN060,0.00,0.00,VWS V14.00,2013-09-29 08:27:00,
2013-09-29 04:32:00,73.9,70.8,29.86,East,98,0.0,0.0,90,0.00,,BKN060,0.00,0.00,VWS V14.00,2013-09-29 08:32:00,
2013-09-29 04:37:00,73.7,70.6,29.86,East,98,0.0,0.0,90,0.00,,BKN060,0.00,0.00,VWS V14.00,2013-09-29 08:37:00,
2013-09-29 04:42:00,73.6,70.5,29.86,East,98,0.0,0.0,90,0.00,,BKN060,0.00,0.00,VWS V14.00,2013-09-29 08:42:00,
2013-09-29 04:47:00,73.6,70.5,29.86,East,98,0.0,0.0,90,0.00,,BKN060,0.00,0.00,VWS V14.00,2013-09-29 08:47:00,
2013-09-29 04:52:00,73.7,70.6,29.86,East,98,0.0,0.0,90,0.00,,BKN060,0.00,0.00,VWS V14.00,2013-09-29 08:52:00,
2013-09-29 04:57:00,73.7,70.6,29.86,East,98,0.0,0.0,90,0.00,,BKN060,0.00,0.00,VWS V14.00,2013-09-29 08:57:00,
2013-09-29 05:02:00,73.6,70.5,29.86,East,98,0.0,0.0,90,0.00,,BKN060,0.00,0.00,VWS V14.00,2013-09-29 09:02:00,
2013-09-29 05:08:00,73.5,70.4,29.86,East,98,0.0,0.0,90,0.00,,BKN060,0.00,0.00,VWS V14.00,2013-09-29 09:08:00,
2013-09-29 05:13:00,73.4,70.3,29.87,East,98,0.0,0.0,90,0.00,,BKN060,0.00,0.00,VWS V14.00,2013-09-29 09:13:00,
2013-09-29 05:18:00,73.3,70.2,29.87,East,98,0.0,0.0,90,0.00,,BKN060,0.00,0.00,VWS V14.00,2013-09-29 09:18:00,
2013-09-29 05:23:00,73.3,70.2,29.87,East,98,0.0,0.0,90,0.00,,BKN060,0.00,0.00,VWS V14.00,2013-09-29 09:23:00,
2013-09-29 05:28:00,73.3,70.2,29.87,East,98,0.0,0.0,90,0.00,,BKN060,0.00,0.00,VWS V14.00,2013-09-29 09:28:00,
2013-09-29 05:33:00,73.2,70.1,29.87,East,98,0.0,0.0,90,0.00,,BKN060,0.00,0.00,VWS V14.00,2013-09-29 09:33:00,
2013-09-29 05:38:00,73.3,70.2,29.87,East,98,0.0,0.0,90,0.00,,BKN060,0.00,0.00,VWS V14.00,2013-09-29 09:38:00,
2013-09-29 05:43:00,73.3,70.2,29.87,East,98,0.0,0.0,90,0.00,,BKN060,0.00,0.00,VWS V14.00,2013-09-29 09:43:00,
2013-09-29 05:48:00,73.2,70.1,29.87,East,98,0.0,1.0,90,0.00,,BKN060,0.00,0.00,VWS V14.00,2013-09-29 09:48:00,
2013-09-29 05:53:00,73.1,70.0,29.87,East,98,0.0,0.0,90,0.00,,BKN060,0.00,0.00,VWS V14.00,2013-09-29 09:53:00,
2013-09-29 05:58:00,73.2,70.1,29.87,East,98,0.0,0.0,90,0.00,,BKN060,0.00,0.00,VWS V14.00,2013-09-29 09:58:00,
2013-09-29 06:03:00,73.0,69.9,29.88,East,98,0.0,1.0,90,0.00,,BKN060,0.00,0.00,VWS V14.00,2013-09-29 10:03:00,
2013-09-29 06:08:00,73.0,69.9,29.88,East,98,0.0,0.0,90,0.00,,BKN060,0.00,0.00,VWS V14.00,2013-09-29 10:08:00,
2013-09-29 06:13:00,72.9,69.8,29.88,East,98,0.0,0.0,90,0.00,,BKN060,0.00,0.00,VWS V14.00,2013-09-29 10:13:00,
2013-09-29 06:18:00,72.9,69.8,29.88,East,98,0.0,0.0,90,0.00,,BKN060,0.00,0.00,VWS V14.00,2013-09-29 10:18:00,
2013-09-29 06:23:00,72.8,69.7,29.88,East,98,0.0,1.0,90,0.00,,BKN060,0.00,0.00,VWS V14.00,2013-09-29 10:23:00,
2013-09-29 06:28:00,72.8,69.7,29.88,East,98,0.0,0.0,90,0.00,,BKN060,0.00,0.00,VWS V14.00,2013-09-29 10:28:00,
2013-09-29 06:33:00,72.8,69.7,29.88,East,98,0.0,0.0,90,0.00,,BKN060,0.00,0.00,VWS V14.00,2013-09-29 10:33:00,
2013-09-29 06:38:00,72.8,69.7,29.88,East,98,0.0,0.0,90,0.00,,BKN060,0.00,0.00,VWS V14.00,2013-09-29 10:38:00,
2013-09-29 06:43:00,72.9,69.8,29.88,East,98,0.0,0.0,90,0.00,,BKN060,0.00,0.00,VWS V14.00,2013-09-29 10:43:00,
2013-09-29 06:48:00,72.9,69.8,29.88,East,98,0.0,0.0,90,0.00,,BKN060,0.00,0.00,VWS V14.00,2013-09-29 10:48:00,
2013-09-29 06:53:00,73.0,69.9,29.89,East,98,0.0,0.0,90,0.00,,BKN060,0.00,0.00,VWS V14.00,2013-09-29 10:53:00,
2013-09-29 06:58:00,73.0,69.9,29.89,East,98,0.0,0.0,90,0.00,,BKN060,0.00,0.00,VWS V14.00,2013-09-29 10:58:00,
2013-09-29 07:04:00,73.0,69.9,29.89,East,98,0.0,0.0,90,0.00,,BKN060,0.00,0.00,VWS V14.00,2013-09-29 11:04:00,
2013-09-29 07:08:00,73.0,69.9,29.89,East,98,1.0,2.0,90,0.00,,BKN060,0.00,0.00,VWS V14.00,2013-09-29 11:08:00,
2013-09-29 07:13:00,73.0,69.9,29.89,East,98,0.0,0.0,90,0.00,,BKN060,0.00,0.00,VWS V14.00,2013-09-29 11:13:00,
2013-09-29 07:19:00,73.1,70.0,29.89,East,98,0.0,0.0,90,0.00,,BKN060,0.00,11.00,VWS V14.00,2013-09-29 11:19:00,
2013-09-29 07:24:00,73.2,70.1,29.88,East,98,0.0,1.0,90,0.00,,BKN060,0.00,35.00,VWS V14.00,2013-09-29 11:24:00,
2013-09-29 07:29:00,73.3,70.2,29.89,East,98,0.0,0.0,90,0.00,,BKN060,0.00,53.00,VWS V14.00,2013-09-29 11:29:00,
2013-09-29 07:34:00,73.4,70.3,29.89,East,98,0.0,1.0,90,0.00,,BKN060,0.00,69.00,VWS V14.00,2013-09-29 11:34:00,
2013-09-29 07:39:00,73.5,70.4,29.89,East,98,0.0,0.0,90,0.00,,SCT035,0.00,84.00,VWS V14.00,2013-09-29 11:39:00,
2013-09-29 07:44:00,73.7,70.6,29.89,East,98,0.0,0.0,90,0.00,,SCT035,0.00,97.00,VWS V14.00,2013-09-29 11:44:00,
2013-09-29 07:49:00,73.8,70.7,29.89,East,98,1.0,1.0,90,0.00,,SCT035,0.00,102.00,VWS V14.00,2013-09-29 11:49:00,
2013-09-29 07:54:00,73.9,70.8,29.89,East,98,0.0,0.0,90,0.00,,SCT035,0.00,104.00,VWS V14.00,2013-09-29 11:54:00,
2013-09-29 07:59:00,74.1,71.0,29.89,East,98,0.0,1.0,90,0.00,,SCT035,0.00,107.00,VWS V14.00,2013-09-29 11:59:00,
2013-09-29 08:04:00,74.2,71.1,29.90,East,98,0.0,1.0,90,0.00,,SCT035,0.00,111.00,VWS V14.00,2013-09-29 12:04:00,
2013-09-29 08:09:00,74.4,71.3,29.90,East,98,0.0,1.0,90,0.00,,SCT035,0.00,113.00,VWS V14.00,2013-09-29 12:09:00,
2013-09-29 08:14:00,74.6,71.5,29.90,East,98,0.0,0.0,90,0.00,,SCT035,0.00,114.00,VWS V14.00,2013-09-29 12:14:00,
2013-09-29 08:19:00,74.7,71.6,29.90,East,98,1.0,1.0,90,0.00,,SCT035,0.00,118.00,VWS V14.00,2013-09-29 12:19:00,
2013-09-29 08:24:00,74.8,71.7,29.90,East,98,0.0,0.0,90,0.00,,SCT035,0.00,125.00,VWS V14.00,2013-09-29 12:24:00,
2013-09-29 08:29:00,75.1,71.6,29.91,East,98,2.0,2.0,89,0.00,,SCT035,0.00,127.00,VWS V14.00,2013-09-29 12:29:00,
2013-09-29 08:34:00,75.6,72.1,29.91,East,98,0.0,0.0,89,0.00,,FEW034,0.00,127.00,VWS V14.00,2013-09-29 12:34:00,
2013-09-29 08:39:00,75.8,72.3,29.91,East,98,2.0,3.0,89,0.00,,FEW034,0.00,130.00,VWS V14.00,2013-09-29 12:39:00,
2013-09-29 08:44:00,75.9,72.4,29.91,East,98,2.0,3.0,89,0.00,,FEW034,0.00,134.00,VWS V14.00,2013-09-29 12:44:00,
2013-09-29 08:49:00,76.4,72.6,29.91,East,98,0.0,0.0,88,0.00,,FEW034,0.00,137.00,VWS V14.00,2013-09-29 12:49:00,
2013-09-29 08:54:00,76.8,72.6,29.91,East,98,0.0,0.0,87,0.00,,FEW034,0.00,139.00,VWS V14.00,2013-09-29 12:54:00,
2013-09-29 08:59:00,77.4,73.2,29.91,East,98,0.0,0.0,87,0.00,,FEW034,0.00,142.00,VWS V14.00,2013-09-29 12:59:00,
2013-09-29 09:04:00,77.8,72.9,29.91,East,98,0.0,0.0,85,0.00,,FEW034,0.00,144.00,VWS V14.00,2013-09-29 13:04:00,
2013-09-29 09:09:00,78.2,73.0,29.91,East,98,4.0,4.0,84,0.00,,FEW034,0.00,144.00,VWS V14.00,2013-09-29 13:09:00,
2013-09-29 09:14:00,78.5,73.3,29.91,East,98,0.0,0.0,84,0.00,,FEW034,0.00,148.00,VWS V14.00,2013-09-29 13:14:00,
2013-09-29 09:19:00,78.8,73.2,29.91,East,98,3.0,4.0,83,0.00,,FEW034,0.00,149.00,VWS V14.00,2013-09-29 13:19:00,
2013-09-29 09:24:00,79.2,73.2,29.91,East,98,0.0,0.0,82,0.00,,FEW034,0.00,149.00,VWS V14.00,2013-09-29 13:24:00,
2013-09-29 09:29:00,79.6,72.9,29.91,East,98,3.0,3.0,80,0.00,,FEW034,0.01,153.00,VWS V14.00,2013-09-29 13:29:00,
2013-09-29 09:34:00,80.1,73.0,29.91,East,98,3.0,4.0,79,0.00,,FEW034,0.01,153.00,VWS V14.00,2013-09-29 13:34:00,
2013-09-29 09:39:00,80.3,72.8,29.91,East,98,2.0,4.0,78,0.00,,FEW034,0.01,153.00,VWS V14.00,2013-09-29 13:39:00,
2013-09-29 09:44:00,80.7,72.8,29.91,East,98,2.0,4.0,77,0.00,,FEW034,0.01,153.00,VWS V14.00,2013-09-29 13:44:00,
2013-09-29 09:49:00,81.1,72.8,29.91,East,98,0.0,2.0,76,0.00,,FEW034,0.01,155.00,VWS V14.00,2013-09-29 13:49:00,
2013-09-29 09:54:00,81.5,72.8,29.92,ESE,110,4.0,5.0,75,0.00,,FEW034,0.01,156.00,VWS V14.00,2013-09-29 13:54:00,
2013-09-29 09:59:00,81.7,72.2,29.92,ESE,110,3.0,5.0,73,0.00,,FEW034,0.01,160.00,VWS V14.00,2013-09-29 13:59:00,
2013-09-29 10:04:00,82.1,72.6,29.92,ESE,110,5.0,6.0,73,0.00,,FEW034,0.01,169.00,VWS V14.00,2013-09-29 14:04:00,
2013-09-29 10:09:00,81.9,71.6,29.92,ESE,115,5.0,6.0,71,0.00,,FEW034,0.01,174.00,VWS V14.00,2013-09-29 14:09:00,
2013-09-29 10:14:00,82.1,72.2,29.92,ESE,119,4.0,7.0,72,0.00,,FEW034,0.01,181.00,VWS V14.00,2013-09-29 14:14:00,
2013-09-29 10:19:00,82.2,71.9,29.92,ESE,117,4.0,5.0,71,0.00,,FEW034,0.01,185.00,VWS V14.00,2013-09-29 14:19:00,
2013-09-29 10:25:00,82.6,71.4,29.92,SE,130,5.0,9.0,69,0.00,,FEW034,0.01,179.00,VWS V14.00,2013-09-29 14:25:00,
2013-09-29 10:30:00,82.9,71.7,29.92,SE,132,5.0,7.0,69,0.00,,FEW034,0.01,178.00,VWS V14.00,2013-09-29 14:30:00,
2013-09-29 10:35:00,83.0,72.2,29.92,SE,132,4.0,4.0,70,0.00,,FEW040,0.01,149.00,VWS V14.00,2013-09-29 14:35:00,
2013-09-29 10:40:00,82.8,71.6,29.92,ESE,115,7.0,7.0,69,0.00,,FEW040,0.01,181.00,VWS V14.00,2013-09-29 14:40:00,
2013-09-29 10:45:00,82.5,71.7,29.92,East,93,4.0,7.0,70,0.00,,FEW040,0.01,95.00,VWS V14.00,2013-09-29 14:45:00,
2013-09-29 10:50:00,82.4,71.6,29.92,East,97,0.0,5.0,70,0.00,,FEW040,0.01,74.00,VWS V14.00,2013-09-29 14:50:00,
2013-09-29 10:55:00,82.7,71.5,29.92,East,101,3.0,5.0,69,0.00,,FEW040,0.01,190.00,VWS V14.00,2013-09-29 14:55:00,
2013-09-29 11:00:00,83.1,71.4,29.92,ESE,121,3.0,9.0,68,0.00,,FEW040,0.01,183.00,VWS V14.00,2013-09-29 15:00:00,
2013-09-29 11:05:00,83.6,71.9,29.92,ESE,122,4.0,6.0,68,0.00,,FEW040,0.01,160.00,VWS V14.00,2013-09-29 15:05:00,
2013-09-29 11:10:00,83.7,71.6,29.92,ESE,123,9.0,9.0,67,0.00,,FEW040,0.01,165.00,VWS V14.00,2013-09-29 15:10:00,
2013-09-29 11:15:00,83.6,71.5,29.92,SE,128,5.0,9.0,67,0.00,,FEW040,0.01,163.00,VWS V14.00,2013-09-29 15:15:00,
2013-09-29 11:20:00,83.2,71.1,29.92,SE,124,6.0,11.0,67,0.00,,FEW040,0.01,165.00,VWS V14.00,2013-09-29 15:20:00,
2013-09-29 11:25:00,82.8,70.3,29.92,ESE,111,7.0,7.0,66,0.00,,FEW040,0.01,107.00,VWS V14.00,2013-09-29 15:25:00,
2013-09-29 11:30:00,82.7,70.2,29.92,East,98,3.0,6.0,66,0.00,,FEW040,0.01,155.00,VWS V14.00,2013-09-29 15:30:00,
2013-09-29 11:35:00,82.8,70.3,29.92,ESE,116,9.0,9.0,66,0.00,,CLR,0.01,153.00,VWS V14.00,2013-09-29 15:35:00,
2013-09-29 11:40:00,83.2,71.1,29.92,ESE,116,5.0,5.0,67,0.00,,CLR,0.01,149.00,VWS V14.00,2013-09-29 15:40:00,
2013-09-29 11:45:00,83.3,70.3,29.92,ESE,110,0.0,1.0,65,0.00,,CLR,0.01,116.00,VWS V14.00,2013-09-29 15:45:00,
2013-09-29 11:50:00,83.4,69.5,29.92,ESE,107,8.0,9.0,63,0.00,,CLR,0.01,146.00,VWS V14.00,2013-09-29 15:50:00,
2013-09-29 11:55:00,83.4,69.9,29.92,ESE,108,3.0,4.0,64,0.00,,CLR,0.01,148.00,VWS V14.00,2013-09-29 15:55:00,
2013-09-29 12:00:00,83.5,70.1,29.91,ESE,111,7.0,9.0,64,0.00,,CLR,0.01,149.00,VWS V14.00,2013-09-29 16:00:00,
2013-09-29 12:05:00,83.6,69.2,29.91,ESE,116,4.0,8.0,62,0.00,,CLR,0.01,137.00,VWS V14.00,2013-09-29 16:05:00,
2013-09-29 12:10:00,83.7,68.3,29.91,ESE,114,1.0,2.0,60,0.00,,CLR,0.01,134.00,VWS V14.00,2013-09-29 16:10:00,
2013-09-29 12:15:00,84.0,69.6,29.91,ESE,116,6.0,6.0,62,0.00,,CLR,0.01,132.00,VWS V14.00,2013-09-29 16:15:00,
2013-09-29 12:20:00,84.3,69.9,29.91,ESE,116,4.0,8.0,62,0.00,,CLR,0.01,135.00,VWS V14.00,2013-09-29 16:20:00,
2013-09-29 12:25:00,84.6,69.2,29.91,ESE,116,4.0,5.0,60,0.00,,CLR,0.01,141.00,VWS V14.00,2013-09-29 16:25:00,
2013-09-29 12:30:00,84.1,69.7,29.90,ESE,109,3.0,8.0,62,0.00,,CLR,0.01,148.00,VWS V14.00,2013-09-29 16:30:00,
2013-09-29 12:35:00,83.8,69.9,29.90,SE,130,9.0,11.0,63,0.00,,FEW035,0.01,142.00,VWS V14.00,2013-09-29 16:35:00,
2013-09-29 12:40:00,84.2,70.2,29.90,SE,129,3.0,5.0,63,0.00,,FEW035,0.01,84.00,VWS V14.00,2013-09-29 16:40:00,
2013-09-29 12:45:00,84.4,70.0,29.90,ESE,120,5.0,10.0,62,0.00,,FEW035,0.01,72.00,VWS V14.00,2013-09-29 16:45:00,
2013-09-29 12:50:00,83.8,68.9,29.90,ESE,106,0.0,0.0,61,0.00,,FEW035,0.01,54.00,VWS V14.00,2013-09-29 16:50:00,
2013-09-29 12:55:00,83.9,70.0,29.90,SE,124,4.0,10.0,63,0.00,,FEW035,0.01,158.00,VWS V14.00,2013-09-29 16:55:00,
2013-09-29 13:00:00,84.0,69.6,29.90,ESE,119,3.0,6.0,62,0.00,,FEW035,0.01,155.00,VWS V14.00,2013-09-29 17:00:00,
2013-09-29 13:05:00,84.4,70.4,29.89,SE,135,4.0,6.0,63,0.00,,FEW035,0.01,155.00,VWS V14.00,2013-09-29 17:05:00,
2013-09-29 13:10:00,84.8,70.8,29.89,SE,146,5.0,5.0,63,0.00,,FEW035,0.01,125.00,VWS V14.00,2013-09-29 17:10:00,
2013-09-29 13:15:00,85.0,70.5,29.88,SSE,156,5.0,9.0,62,0.00,,FEW035,0.01,156.00,VWS V14.00,2013-09-29 17:15:00,
2013-09-29 13:20:00,85.2,70.7,29.88,SSE,158,4.0,6.0,62,0.00,,FEW035,0.01,162.00,VWS V14.00,2013-09-29 17:20:00,
2013-09-29 13:25:00,85.0,70.5,29.88,SSE,158,0.0,4.0,62,0.00,,FEW035,0.01,51.00,VWS V14.00,2013-09-29 17:25:00,
2013-09-29 13:30:00,84.9,70.9,29.88,SSE,156,4.0,7.0,63,0.00,,FEW035,0.01,162.00,VWS V14.00,2013-09-29 17:30:00,
2013-09-29 13:35:00,84.5,70.1,29.88,ESE,106,6.0,7.0,62,0.00,,FEW035,0.01,67.00,VWS V14.00,2013-09-29 17:35:00,
2013-09-29 13:40:00,84.1,71.5,29.87,East,95,5.0,7.0,66,0.00,,FEW035,0.01,155.00,VWS V14.00,2013-09-29 17:40:00,
2013-09-29 13:45:00,84.5,71.9,29.87,ESE,117,0.0,6.0,66,0.00,,FEW035,0.01,153.00,VWS V14.00,2013-09-29 17:45:00,
2013-09-29 13:51:00,84.7,71.2,29.87,ESE,111,6.0,10.0,64,0.00,,FEW035,0.01,153.00,VWS V14.00,2013-09-29 17:51:00,
2013-09-29 13:56:00,84.5,70.1,29.87,ESE,111,0.0,5.0,62,0.00,,FEW035,0.01,160.00,VWS V14.00,2013-09-29 17:56:00,
2013-09-29 14:00:00,84.7,71.2,29.87,ESE,112,2.0,5.0,64,0.00,,FEW035,0.01,47.00,VWS V14.00,2013-09-29 18:00:00,
2013-09-29 14:05:00,84.4,70.0,29.87,East,101,7.0,9.0,62,0.00,,FEW035,0.01,77.00,VWS V14.00,2013-09-29 18:05:00,
2013-09-29 14:10:00,84.2,70.2,29.87,East,92,5.0,10.0,63,0.00,,FEW035,0.01,158.00,VWS V14.00,2013-09-29 18:10:00,
2013-09-29 14:16:00,84.2,69.3,29.87,ESE,117,4.0,10.0,61,0.00,,FEW035,0.01,160.00,VWS V14.00,2013-09-29 18:16:00,
2013-09-29 14:20:00,84.2,70.7,29.86,ESE,115,4.0,11.0,64,0.00,,FEW035,0.01,163.00,VWS V14.00,2013-09-29 18:20:00,
2013-09-29 14:25:00,84.3,70.8,29.86,ESE,106,4.0,11.0,64,0.00,,FEW035,0.01,162.00,VWS V14.00,2013-09-29 18:25:00,
2013-09-29 14:31:00,84.5,71.0,29.86,ESE,121,4.0,9.0,64,0.00,,FEW035,0.01,47.00,VWS V14.00,2013-09-29 18:31:00,
2013-09-29 14:36:00,84.5,71.0,29.86,East,101,7.0,9.0,64,0.00,,FEW035,0.01,160.00,VWS V14.00,2013-09-29 18:36:00,
2013-09-29 14:41:00,84.1,71.5,29.86,ESE,109,14.0,14.0,66,0.00,,FEW035,0.01,149.00,VWS V14.00,2013-09-29 18:41:00,
2013-09-29 14:46:00,84.4,71.4,29.85,SE,143,6.0,11.0,65,0.00,,FEW035,0.01,151.00,VWS V14.00,2013-09-29 18:46:00,
2013-09-29 14:51:00,85.0,70.5,29.85,ESE,113,3.0,9.0,62,0.00,,FEW035,0.01,146.00,VWS V14.00,2013-09-29 18:51:00,
2013-09-29 14:56:00,85.1,71.6,29.85,SE,140,9.0,11.0,64,0.00,,FEW035,0.01,148.00,VWS V14.00,2013-09-29 18:56:00,
2013-09-29 15:01:00,85.0,70.1,29.85,East,93,4.0,11.0,61,0.00,,FEW035,0.01,142.00,VWS V14.00,2013-09-29 19:01:00,
2013-09-29 15:06:00,84.9,71.4,29.85,ESE,119,6.0,6.0,64,0.00,,FEW035,0.01,139.00,VWS V14.00,2013-09-29 19:06:00,
2013-09-29 15:11:00,84.8,71.3,29.84,SE,126,8.0,9.0,64,0.00,,FEW035,0.01,135.00,VWS V14.00,2013-09-29 19:11:00,
2013-09-29 15:16:00,84.4,70.9,29.84,ESE,104,7.0,7.0,64,0.00,,FEW035,0.01,135.00,VWS V14.00,2013-09-29 19:16:00,
2013-09-29 15:21:00,84.6,70.6,29.84,ESE,112,6.0,11.0,63,0.00,,FEW035,0.01,130.00,VWS V14.00,2013-09-29 19:21:00,
2013-09-29 15:26:00,84.4,71.4,29.84,ESE,107,7.0,9.0,65,0.00,,FEW035,0.01,81.00,VWS V14.00,2013-09-29 19:26:00,
2013-09-29 15:31:00,84.1,70.6,29.84,ESE,111,5.0,12.0,64,0.00,,FEW035,0.01,127.00,VWS V14.00,2013-09-29 19:31:00,
2013-09-29 15:36:00,84.2,70.7,29.84,SE,132,0.0,9.0,64,0.00,,FEW035,0.01,128.00,VWS V14.00,2013-09-29 19:36:00,
2013-09-29 15:41:00,84.7,72.1,29.83,SE,126,6.0,7.0,66,0.00,,FEW035,0.01,127.00,VWS V14.00,2013-09-29 19:41:00,
2013-09-29 15:46:00,84.7,71.2,29.83,ESE,113,6.0,7.0,64,0.00,,FEW035,0.01,123.00,VWS V14.00,2013-09-29 19:46:00,
2013-09-29 15:49:00,84.6,71.1,29.83,ESE,113,3.0,7.0,64,0.00,,FEW035,0.01,120.00,VWS V14.00,2013-09-29 19:49:00,
2013-09-29 15:54:00,84.7,70.7,29.83,ESE,109,0.0,0.0,63,0.00,,FEW035,0.01,118.00,VWS V14.00,2013-09-29 19:54:00,
2013-09-29 15:59:00,84.3,70.3,29.83,ESE,108,0.0,3.0,63,0.00,,FEW035,0.01,40.00,VWS V14.00,2013-09-29 19:59:00,
2013-09-29 16:04:00,84.5,70.1,29.83,ESE,117,5.0,8.0,62,0.00,,FEW035,0.01,118.00,VWS V14.00,2013-09-29 20:04:00,
2013-09-29 16:09:00,84.5,70.1,29.83,East,101,9.0,11.0,62,0.00,,FEW035,0.01,111.00,VWS V14.00,2013-09-29 20:09:00,
2013-09-29 16:14:00,84.7,70.2,29.83,ESE,108,7.0,11.0,62,0.00,,FEW035,0.01,109.00,VWS V14.00,2013-09-29 20:14:00,
2013-09-29 16:19:00,84.7,70.2,29.83,SSE,148,9.0,13.0,62,0.00,,FEW035,0.01,109.00,VWS V14.00,2013-09-29 20:19:00,
2013-09-29 16:24:00,84.5,70.5,29.83,ESE,123,6.0,13.0,63,0.00,,FEW035,0.01,105.00,VWS V14.00,2013-09-29 20:24:00,
2013-09-29 16:29:00,84.5,71.4,29.83,ESE,122,4.0,6.0,65,0.00,,FEW035,0.01,105.00,VWS V14.00,2013-09-29 20:29:00,
2013-09-29 16:34:00,84.6,71.1,29.83,ESE,106,11.0,13.0,64,0.00,,FEW050,0.01,102.00,VWS V14.00,2013-09-29 20:34:00,
2013-09-29 16:39:00,84.0,71.0,29.83,SE,130,9.0,13.0,65,0.00,,FEW050,0.01,102.00,VWS V14.00,2013-09-29 20:39:00,
2013-09-29 16:44:00,84.1,71.1,29.83,ESE,120,8.0,13.0,65,0.00,,FEW050,0.01,100.00,VWS V14.00,2013-09-29 20:44:00,
2013-09-29 16:49:00,84.0,70.5,29.83,East,80,7.0,11.0,64,0.00,,FEW050,0.01,83.00,VWS V14.00,2013-09-29 20:49:00,
2013-09-29 16:54:00,83.8,71.2,29.84,SSE,149,10.0,11.0,66,0.00,,FEW050,0.01,104.00,VWS V14.00,2013-09-29 20:54:00,
2013-09-29 16:59:00,84.0,71.0,29.84,ESE,118,7.0,10.0,65,0.00,,FEW050,0.01,105.00,VWS V14.00,2013-09-29 20:59:00,
2013-09-29 17:04:00,83.9,71.8,29.84,SE,126,5.0,6.0,67,0.00,,FEW050,0.01,104.00,VWS V14.00,2013-09-29 21:04:00,
2013-09-29 17:09:00,84.0,71.4,29.84,SE,134,8.0,8.0,66,0.00,,FEW050,0.01,39.00,VWS V14.00,2013-09-29 21:09:00,
2013-09-29 17:14:00,83.9,71.3,29.84,East,90,6.0,10.0,66,0.00,,FEW050,0.01,105.00,VWS V14.00,2013-09-29 21:14:00,
2013-09-29 17:19:00,83.7,71.1,29.84,ESE,103,4.0,7.0,66,0.00,,FEW050,0.01,105.00,VWS V14.00,2013-09-29 21:19:00,
2013-09-29 17:24:00,83.6,71.5,29.84,ESE,113,0.0,6.0,67,0.00,,FEW050,0.01,37.00,VWS V14.00,2013-09-29 21:24:00,
2013-09-29 17:29:00,83.4,71.3,29.84,ESE,122,6.0,14.0,67,0.00,,FEW050,0.01,44.00,VWS V14.00,2013-09-29 21:29:00,
2013-09-29 17:34:00,83.1,71.4,29.84,SSE,150,6.0,13.0,68,0.00,,FEW050,0.01,37.00,VWS V14.00,2013-09-29 21:34:00,
2013-09-29 17:39:00,83.0,71.8,29.84,ESE,118,5.0,12.0,69,0.00,,FEW050,0.01,30.00,VWS V14.00,2013-09-29 21:39:00,
2013-09-29 17:44:00,82.7,71.1,29.84,ESE,113,5.0,6.0,68,0.00,,FEW050,0.01,44.00,VWS V14.00,2013-09-29 21:44:00,
2013-09-29 17:49:00,82.5,70.9,29.84,ESE,117,5.0,10.0,68,0.00,,FEW050,0.01,25.00,VWS V14.00,2013-09-29 21:49:00,
2013-09-29 17:54:00,82.3,70.7,29.84,SE,136,8.0,12.0,68,0.00,,FEW050,0.01,21.00,VWS V14.00,2013-09-29 21:54:00,
2013-09-29 17:59:00,82.3,70.7,29.85,SE,141,0.0,0.0,68,0.00,,FEW050,0.01,23.00,VWS V14.00,2013-09-29 21:59:00,
2013-09-29 18:04:00,82.4,71.2,29.85,SE,127,4.0,7.0,69,0.00,,FEW050,0.01,21.00,VWS V14.00,2013-09-29 22:04:00,
2013-09-29 18:09:00,82.3,70.7,29.85,ESE,117,0.0,1.0,68,0.00,,FEW050,0.01,25.00,VWS V14.00,2013-09-29 22:09:00,
2013-09-29 18:14:00,82.3,70.7,29.85,SE,131,0.0,0.0,68,0.00,,FEW050,0.01,63.00,VWS V14.00,2013-09-29 22:14:00,
2013-09-29 18:19:00,82.5,71.3,29.85,SE,131,0.0,0.0,69,0.00,,FEW050,0.01,60.00,VWS V14.00,2013-09-29 22:19:00,
2013-09-29 18:24:00,82.4,71.2,29.85,SE,135,0.0,1.0,69,0.00,,FEW050,0.01,21.00,VWS V14.00,2013-09-29 22:24:00,
2013-09-29 18:30:00,82.2,71.0,29.86,ESE,121,7.0,8.0,69,0.00,,FEW050,0.01,28.00,VWS V14.00,2013-09-29 22:30:00,
2013-09-29 18:35:00,82.0,71.3,29.86,ESE,117,9.0,10.0,70,0.00,,FEW035,0.01,32.00,VWS V14.00,2013-09-29 22:35:00,
2013-09-29 18:40:00,81.9,71.6,29.86,ESE,113,6.0,6.0,71,0.00,,FEW035,0.01,16.00,VWS V14.00,2013-09-29 22:40:00,
2013-09-29 18:45:00,81.8,71.5,29.86,ESE,111,10.0,10.0,71,0.00,,FEW035,0.01,14.00,VWS V14.00,2013-09-29 22:45:00,
2013-09-29 18:50:00,81.6,70.9,29.86,SE,126,6.0,10.0,70,0.00,,FEW035,0.01,16.00,VWS V14.00,2013-09-29 22:50:00,
2013-09-29 18:55:00,81.6,71.3,29.86,ESE,121,6.0,7.0,71,0.00,,FEW035,0.01,7.00,VWS V14.00,2013-09-29 22:55:00,
2013-09-29 19:00:00,81.4,71.5,29.86,ESE,122,3.0,6.0,72,0.00,,FEW035,0.01,0.00,VWS V14.00,2013-09-29 23:00:00,
2013-09-29 19:05:00,81.4,71.5,29.86,ESE,122,3.0,4.0,72,0.00,,FEW035,0.01,0.00,VWS V14.00,2013-09-29 23:05:00,
2013-09-29 19:10:00,81.2,71.3,29.86,SE,126,4.0,6.0,72,0.00,,FEW035,0.01,0.00,VWS V14.00,2013-09-29 23:10:00,
2013-09-29 19:15:00,81.1,71.2,29.86,SE,125,7.0,7.0,72,0.00,,FEW035,0.01,0.00,VWS V14.00,2013-09-29 23:15:00,
2013-09-29 19:20:00,81.1,71.6,29.86,ESE,117,7.0,8.0,73,0.00,,FEW035,0.01,0.00,VWS V14.00,2013-09-29 23:20:00,
2013-09-29 19:25:00,81.0,71.1,29.87,ESE,115,4.0,10.0,72,0.00,,FEW035,0.01,0.00,VWS V14.00,2013-09-29 23:25:00,
2013-09-29 19:30:00,80.9,71.0,29.86,ESE,117,5.0,6.0,72,0.00,,FEW035,0.01,0.00,VWS V14.00,2013-09-29 23:30:00,
2013-09-29 19:35:00,80.8,70.9,29.87,ESE,117,0.0,4.0,72,0.00,,FEW035,0.01,0.00,VWS V14.00,2013-09-29 23:35:00,
2013-09-29 19:40:00,80.7,70.8,29.87,ESE,117,4.0,4.0,72,0.00,,FEW035,0.01,0.00,VWS V14.00,2013-09-29 23:40:00,
2013-09-29 19:45:00,80.7,71.2,29.88,ESE,117,1.0,5.0,73,0.00,,FEW035,0.01,0.00,VWS V14.00,2013-09-29 23:45:00,
2013-09-29 19:50:00,80.6,71.2,29.88,ESE,117,4.0,4.0,73,0.00,,FEW035,0.01,0.00,VWS V14.00,2013-09-29 23:50:00,
2013-09-29 19:55:00,80.5,71.1,29.88,ESE,117,0.0,0.0,73,0.00,,FEW035,0.01,0.00,VWS V14.00,2013-09-29 23:55:00,
2013-09-29 20:00:00,80.4,71.0,29.88,ESE,117,1.0,2.0,73,0.00,,FEW035,0.01,0.00,VWS V14.00,2013-09-30 00:00:00,
2013-09-29 20:05:00,80.4,71.4,29.88,ESE,117,0.0,1.0,74,0.00,,FEW035,0.01,0.00,VWS V14.00,2013-09-30 00:05:00,
2013-09-29 20:10:00,80.3,70.9,29.88,ESE,117,0.0,2.0,73,0.00,,FEW035,0.01,0.00,VWS V14.00,2013-09-30 00:10:00,
2013-09-29 20:15:00,80.3,71.3,29.88,ESE,117,0.0,1.0,74,0.00,,FEW035,0.01,0.00,VWS V14.00,2013-09-30 00:15:00,
2013-09-29 20:20:00,80.2,71.2,29.88,ESE,117,0.0,0.0,74,0.00,,FEW035,0.01,0.00,VWS V14.00,2013-09-30 00:20:00,
2013-09-29 20:25:00,80.2,71.6,29.88,ESE,117,0.0,0.0,75,0.00,,FEW035,0.01,0.00,VWS V14.00,2013-09-30 00:25:00,
2013-09-29 20:30:00,80.0,71.0,29.88,ESE,117,0.0,1.0,74,0.00,,FEW035,0.01,0.00,VWS V14.00,2013-09-30 00:30:00,
2013-09-29 20:35:00,79.9,70.9,29.88,ESE,117,0.0,0.0,74,0.00,,FEW035,0.01,0.00,VWS V14.00,2013-09-30 00:35:00,
2013-09-29 20:40:00,79.9,70.9,29.89,ESE,117,0.0,0.0,74,0.00,,FEW035,0.01,0.00,VWS V14.00,2013-09-30 00:40:00,
2013-09-29 20:45:00,79.8,70.8,29.89,ESE,117,0.0,3.0,74,0.00,,FEW035,0.01,0.00,VWS V14.00,2013-09-30 00:45:00,
2013-09-29 20:50:00,79.8,70.8,29.89,ESE,117,0.0,2.0,74,0.00,,FEW035,0.01,0.00,VWS V14.00,2013-09-30 00:50:00,
2013-09-29 20:55:00,79.7,71.1,29.89,ESE,117,0.0,3.0,75,0.00,,FEW035,0.01,0.00,VWS V14.00,2013-09-30 00:55:00,
2013-09-29 21:00:00,79.7,71.1,29.89,ESE,117,0.0,0.0,75,0.00,,FEW035,0.01,0.00,VWS V14.00,2013-09-30 01:00:00,
2013-09-29 21:05:00,79.7,71.1,29.89,ESE,117,0.0,0.0,75,0.00,,FEW035,0.01,0.00,VWS V14.00,2013-09-30 01:05:00,
2013-09-29 21:10:00,79.5,70.9,29.89,ESE,117,0.0,0.0,75,0.00,,FEW035,0.01,0.00,VWS V14.00,2013-09-30 01:10:00,
2013-09-29 21:15:00,79.5,70.9,29.89,ESE,117,0.0,0.0,75,0.00,,FEW035,0.01,0.00,VWS V14.00,2013-09-30 01:15:00,
2013-09-29 21:20:00,79.4,70.8,29.89,ESE,117,0.0,3.0,75,0.00,,FEW035,0.01,0.00,VWS V14.00,2013-09-30 01:20:00,
2013-09-29 21:26:00,79.4,71.2,29.90,ESE,117,0.0,4.0,76,0.00,,FEW035,0.01,0.00,VWS V14.00,2013-09-30 01:26:00,
2013-09-29 21:31:00,79.3,71.1,29.90,ESE,117,0.0,0.0,76,0.00,,FEW035,0.01,0.00,VWS V14.00,2013-09-30 01:31:00,
2013-09-29 21:36:00,79.3,71.1,29.90,ESE,117,0.0,0.0,76,0.00,,FEW035,0.01,0.00,VWS V14.00,2013-09-30 01:36:00,
2013-09-29 21:41:00,79.3,71.5,29.90,ESE,117,0.0,0.0,77,0.00,,FEW035,0.01,0.00,VWS V14.00,2013-09-30 01:41:00,
2013-09-29 21:46:00,79.3,71.5,29.90,ESE,117,0.0,0.0,77,0.00,,FEW035,0.01,0.00,VWS V14.00,2013-09-30 01:46:00,
2013-09-29 21:51:00,79.3,71.5,29.91,ESE,117,0.0,0.0,77,0.00,,FEW035,0.01,0.00,VWS V14.00,2013-09-30 01:51:00,
2013-09-29 21:56:00,79.2,71.4,29.91,ESE,117,0.0,0.0,77,0.00,,FEW035,0.01,0.00,VWS V14.00,2013-09-30 01:56:00,
2013-09-29 22:01:00,79.1,70.9,29.91,ESE,117,0.0,0.0,76,0.00,,FEW035,0.01,0.00,VWS V14.00,2013-09-30 02:01:00,
2013-09-29 22:06:00,79.1,71.3,29.91,ESE,117,0.0,0.0,77,0.00,,FEW035,0.01,0.00,VWS V14.00,2013-09-30 02:06:00,
2013-09-29 22:11:00,79.1,71.3,29.91,ESE,117,0.0,0.0,77,0.00,,FEW035,0.01,0.00,VWS V14.00,2013-09-30 02:11:00,
2013-09-29 22:16:00,79.1,71.3,29.91,ESE,117,0.0,1.0,77,0.00,,FEW035,0.01,0.00,VWS V14.00,2013-09-30 02:16:00,
2013-09-29 22:21:00,79.0,71.6,29.91,ESE,117,0.0,0.0,78,0.00,,FEW035,0.01,0.00,VWS V14.00,2013-09-30 02:21:00,
2013-09-29 22:26:00,79.0,71.9,29.91,ESE,117,0.0,0.0,79,0.00,,FEW035,0.01,0.00,VWS V14.00,2013-09-30 02:26:00,
2013-09-29 22:31:00,78.8,71.7,29.91,ESE,117,0.0,0.0,79,0.00,,FEW035,0.01,0.00,VWS V14.00,2013-09-30 02:31:00,
2013-09-29 22:36:00,78.7,71.6,29.91,ESE,117,0.0,0.0,79,0.00,,FEW035,0.01,0.00,VWS V14.00,2013-09-30 02:36:00,
2013-09-29 22:41:00,78.5,71.1,29.91,ESE,117,0.0,0.0,78,0.00,,FEW035,0.01,0.00,VWS V14.00,2013-09-30 02:41:00,
2013-09-29 22:46:00,78.3,70.9,29.91,ESE,117,0.0,0.0,78,0.00,,FEW035,0.01,0.00,VWS V14.00,2013-09-30 02:46:00,
2013-09-29 22:51:00,78.2,70.8,29.91,ESE,117,0.0,0.0,78,0.00,,FEW035,0.01,0.00,VWS V14.00,2013-09-30 02:51:00,
2013-09-29 22:56:00,78.1,70.7,29.91,ESE,117,0.0,0.0,78,0.00,,FEW035,0.01,0.00,VWS V14.00,2013-09-30 02:56:00,
2013-09-29 23:01:00,78.0,70.6,29.91,ESE,117,0.0,0.0,78,0.00,,FEW035,0.01,0.00,VWS V14.00,2013-09-30 03:01:00,
2013-09-29 23:06:00,78.0,71.0,29.91,ESE,117,0.0,0.0,79,0.00,,FEW035,0.01,0.00,VWS V14.00,2013-09-30 03:06:00,
2013-09-29 23:11:00,78.1,71.8,29.91,ESE,117,0.0,0.0,81,0.00,,FEW035,0.01,0.00,VWS V14.00,2013-09-30 03:11:00,
2013-09-29 23:16:00,77.9,72.0,29.91,ESE,117,0.0,0.0,82,0.00,,FEW035,0.01,0.00,VWS V14.00,2013-09-30 03:16:00,
2013-09-29 23:21:00,77.7,71.8,29.91,ESE,117,0.0,0.0,82,0.00,,FEW035,0.01,0.00,VWS V14.00,2013-09-30 03:21:00,
2013-09-29 23:26:00,77.4,71.5,29.91,ESE,117,0.0,0.0,82,0.00,,FEW035,0.01,0.00,VWS V14.00,2013-09-30 03:26:00,
2013-09-29 23:31:00,77.3,71.7,29.91,ESE,117,0.0,0.0,83,0.00,,FEW035,0.01,0.00,VWS V14.00,2013-09-30 03:31:00,
2013-09-29 23:36:00,77.1,71.5,29.91,ESE,117,0.0,0.0,83,0.00,,FEW035,0.01,0.00,VWS V14.00,2013-09-30 03:36:00,
2013-09-29 23:41:00,77.0,71.4,29.91,ESE,117,0.0,0.0,83,0.00,,FEW035,0.01,0.00,VWS V14.00,2013-09-30 03:41:00,
2013-09-29 23:46:00,76.9,71.3,29.91,ESE,117,0.0,0.0,83,0.00,,FEW035,0.01,0.00,VWS V14.00,2013-09-30 03:46:00,
2013-09-29 23:51:00,76.8,71.2,29.91,ESE,117,0.0,1.0,83,0.00,,FEW035,0.01,0.00,VWS V14.00,2013-09-30 03:51:00,
2013-09-29 23:56:00,76.7,71.2,29.90,ESE,117,0.0,0.0,83,0.00,,FEW035,0.01,0.00,VWS V14.00,2013-09-30 03:56:00,